Time,TemperatureF,DewpointF,PressureIn,WindDirection,WindDirectionDegrees,WindSpeedMPH,WindSpeedGustMPH,Humidity,HourlyPrecipIn,Conditions,Clouds,dailyrainin,SoftwareType,DateUTC
2014-02-20 00:09:00,34.9,28.4,29.58,South,180,2.7,-999.0,77,-99.99,,,0.00,Acu-Link.com,2014-02-20 06:09:00,
2014-02-20 00:24:00,35.4,28.6,29.56,SSE,157,3.2,-999.0,76,-99.99,,,0.00,Acu-Link.com,2014-02-20 06:24:00,
2014-02-20 00:39:00,36.5,29.0,29.55,South,180,5.3,-999.0,74,-99.99,,,0.00,Acu-Link.com,2014-02-20 06:39:00,
2014-02-20 00:54:00,36.5,29.0,29.55,SSE,157,4.2,-999.0,74,-99.99,,,0.00,Acu-Link.com,2014-02-20 06:54:00,
2014-02-20 01:10:00,35.6,28.8,29.55,South,180,2.7,-999.0,76,-99.99,,,0.00,Acu-Link.com,2014-02-20 07:10:00,
2014-02-20 01:25:00,34.7,28.9,29.55,SSW,202,3.2,-999.0,79,-99.99,,,0.00,Acu-Link.com,2014-02-20 07:25:00,
2014-02-20 01:40:00,34.0,28.2,29.56,West,270,0.0,-999.0,79,-99.99,,,0.00,Acu-Link.com,2014-02-20 07:40:00,
2014-02-20 01:55:00,33.6,28.1,29.57,NW,315,0.0,-999.0,80,-99.99,,,0.00,Acu-Link.com,2014-02-20 07:55:00,
2014-02-20 02:10:00,32.4,27.5,29.57,NW,315,1.7,-999.0,82,-99.99,,,0.00,Acu-Link.com,2014-02-20 08:10:00,
2014-02-20 02:26:00,31.8,27.5,29.58,NNW,337,2.7,-999.0,84,-99.99,,,0.00,Acu-Link.com,2014-02-20 08:26:00,
2014-02-20 02:41:00,31.5,27.8,29.58,NW,315,3.2,-999.0,86,-99.99,,,0.00,Acu-Link.com,2014-02-20 08:41:00,
2014-02-20 02:56:00,32.0,28.3,29.59,NNW,337,4.2,-999.0,86,-99.99,,,0.00,Acu-Link.com,2014-02-20 08:56:00,
2014-02-20 03:12:00,33.3,29.6,29.57,NNW,337,4.7,-999.0,86,-99.99,,,0.00,Acu-Link.com,2014-02-20 09:12:00,
2014-02-20 03:27:00,35.1,31.1,29.58,NW,315,6.3,-999.0,85,-99.99,,,0.00,Acu-Link.com,2014-02-20 09:27:00,
2014-02-20 03:42:00,35.2,30.9,29.59,NW,315,8.3,-999.0,84,-99.99,,,0.00,Acu-Link.com,2014-02-20 09:42:00,
2014-02-20 03:57:00,35.2,30.9,29.59,NW,315,6.3,-999.0,84,-99.99,,,0.00,Acu-Link.com,2014-02-20 09:57:00,
2014-02-20 04:12:00,34.9,30.9,29.58,NNW,337,6.8,-999.0,85,-99.99,,,0.00,Acu-Link.com,2014-02-20 10:12:00,
2014-02-20 04:28:00,34.9,30.9,29.59,NW,315,5.3,-999.0,85,-99.99,,,0.00,Acu-Link.com,2014-02-20 10:28:00,
2014-02-20 04:43:00,34.9,30.9,29.59,North,0,7.3,-999.0,85,-99.99,,,0.00,Acu-Link.com,2014-02-20 10:43:00,
2014-02-20 04:58:00,34.9,30.9,29.57,NW,315,11.4,-999.0,85,-99.99,,,0.00,Acu-Link.com,2014-02-20 10:58:00,
2014-02-20 05:14:00,35.2,30.9,29.58,NW,315,8.9,-999.0,84,-99.99,,,0.00,Acu-Link.com,2014-02-20 11:14:00,
2014-02-20 05:29:00,36.0,31.0,29.57,NNW,337,12.5,-999.0,82,-99.99,,,0.00,Acu-Link.com,2014-02-20 11:29:00,
2014-02-20 05:44:00,36.0,31.0,29.59,NW,315,9.4,-999.0,82,-99.99,,,0.00,Acu-Link.com,2014-02-20 11:44:00,
2014-02-20 05:59:00,35.8,31.4,29.58,NNW,337,7.3,-999.0,84,-99.99,,,0.00,Acu-Link.com,2014-02-20 11:59:00,
2014-02-20 06:14:00,35.4,31.3,29.58,NNW,337,11.4,-999.0,85,-99.99,,,0.00,Acu-Link.com,2014-02-20 12:14:00,
2014-02-20 06:29:00,35.1,31.6,29.58,NNW,337,6.8,-999.0,87,-99.99,,,0.00,Acu-Link.com,2014-02-20 12:29:00,
2014-02-20 06:44:00,34.3,31.4,29.57,NW,315,6.8,-999.0,89,-99.99,,,0.00,Acu-Link.com,2014-02-20 12:44:00,
2014-02-20 06:59:00,34.2,31.6,29.57,NNW,337,4.2,-999.0,90,-99.99,,,0.00,Acu-Link.com,2014-02-20 12:59:00,
2014-02-20 07:14:00,34.0,31.7,29.58,NNW,337,6.8,-999.0,91,-99.99,,,0.00,Acu-Link.com,2014-02-20 13:14:00,
2014-02-20 07:29:00,34.0,31.7,29.58,North,0,3.2,-999.0,91,-99.99,,,0.00,Acu-Link.com,2014-02-20 13:29:00,
2014-02-20 07:44:00,34.0,31.9,29.58,NE,45,3.7,-999.0,92,-99.99,,,0.00,Acu-Link.com,2014-02-20 13:44:00,
2014-02-20 08:00:00,34.0,31.9,29.58,North,0,2.2,-999.0,92,-99.99,,,0.00,Acu-Link.com,2014-02-20 14:00:00,
2014-02-20 08:15:00,34.0,31.9,29.59,NNW,337,2.2,-999.0,92,-99.99,,,0.00,Acu-Link.com,2014-02-20 14:15:00,
2014-02-20 08:30:00,34.0,31.9,29.59,NNW,337,2.7,-999.0,92,-99.99,,,0.00,Acu-Link.com,2014-02-20 14:30:00,
2014-02-20 08:46:00,33.8,31.7,29.60,WNW,292,0.0,-999.0,92,-99.99,,,0.00,Acu-Link.com,2014-02-20 14:46:00,
2014-02-20 09:01:00,33.8,31.7,29.60,NNW,337,1.7,-999.0,92,-99.99,,,0.00,Acu-Link.com,2014-02-20 15:01:00,
2014-02-20 09:16:00,34.0,30.8,29.59,NNW,337,3.7,-999.0,88,-99.99,,,0.00,Acu-Link.com,2014-02-20 15:16:00,
2014-02-20 09:31:00,34.2,31.0,29.59,NNW,337,4.7,-999.0,88,-99.99,,,0.00,Acu-Link.com,2014-02-20 15:31:00,
2014-02-20 09:47:00,34.3,30.8,29.58,NNW,337,6.8,-999.0,87,-99.99,,,0.00,Acu-Link.com,2014-02-20 15:47:00,
2014-02-20 10:02:00,34.7,30.7,29.59,NNW,337,4.2,-999.0,85,-99.99,,,0.00,Acu-Link.com,2014-02-20 16:02:00,
2014-02-20 10:17:00,35.1,30.8,29.58,NNW,337,5.8,-999.0,84,-99.99,,,0.00,Acu-Link.com,2014-02-20 16:17:00,
2014-02-20 10:32:00,35.1,30.8,29.57,NNW,337,7.3,-999.0,84,-99.99,,,0.00,Acu-Link.com,2014-02-20 16:32:00,
2014-02-20 10:47:00,35.4,30.8,29.57,NNW,337,5.3,-999.0,83,-99.99,,,0.00,Acu-Link.com,2014-02-20 16:47:00,
2014-02-20 11:02:00,35.6,30.7,29.57,NNW,337,9.9,-999.0,82,-99.99,,,0.00,Acu-Link.com,2014-02-20 17:02:00,
2014-02-20 11:17:00,35.8,30.6,29.56,WNW,292,7.3,-999.0,81,-99.99,,,0.00,Acu-Link.com,2014-02-20 17:17:00,
2014-02-20 11:33:00,36.1,30.2,29.54,NNW,337,8.3,-999.0,79,-99.99,,,0.00,Acu-Link.com,2014-02-20 17:33:00,
2014-02-20 11:48:00,36.7,30.5,29.55,NNW,337,10.9,-999.0,78,-99.99,,,0.00,Acu-Link.com,2014-02-20 17:48:00,
2014-02-20 12:03:00,37.2,30.7,29.53,NW,315,7.8,-999.0,77,-99.99,,,0.00,Acu-Link.com,2014-02-20 18:03:00,
2014-02-20 12:18:00,37.8,30.6,29.53,NW,315,10.9,-999.0,75,-99.99,,,0.00,Acu-Link.com,2014-02-20 18:18:00,
2014-02-20 12:33:00,38.1,30.9,29.52,NW,315,7.3,-999.0,75,-99.99,,,0.00,Acu-Link.com,2014-02-20 18:33:00,
2014-02-20 12:48:00,38.1,30.6,29.51,NNW,337,13.5,-999.0,74,-99.99,,,0.00,Acu-Link.com,2014-02-20 18:48:00,
2014-02-20 13:03:00,39.0,30.4,29.50,NW,315,7.8,-999.0,71,-99.99,,,0.00,Acu-Link.com,2014-02-20 19:03:00,
2014-02-20 13:18:00,39.4,30.1,29.50,NNW,337,16.1,-999.0,69,-99.99,,,0.01,Acu-Link.com,2014-02-20 19:18:00,
2014-02-20 13:33:00,39.0,30.8,29.50,WNW,292,12.5,-999.0,72,-99.99,,,0.01,Acu-Link.com,2014-02-20 19:33:00,
2014-02-20 13:48:00,39.6,31.3,29.50,NNW,337,23.3,-999.0,72,-99.99,,,0.03,Acu-Link.com,2014-02-20 19:48:00,
2014-02-20 14:03:00,38.5,30.3,29.49,NW,315,16.6,-999.0,72,-99.99,,,0.04,Acu-Link.com,2014-02-20 20:03:00,
2014-02-20 14:19:00,36.7,29.2,29.50,NNW,337,22.7,-999.0,74,-99.99,,,0.06,Acu-Link.com,2014-02-20 20:19:00,
2014-02-20 14:34:00,36.0,27.9,29.50,North,0,17.1,-999.0,72,-99.99,,,0.17,Acu-Link.com,2014-02-20 20:34:00,
2014-02-20 14:49:00,35.8,28.0,29.52,NW,315,13.5,-999.0,73,-99.99,,,0.31,Acu-Link.com,2014-02-20 20:49:00,
2014-02-20 15:04:00,33.8,26.7,29.52,West,270,16.6,-999.0,75,-99.99,,,0.40,Acu-Link.com,2014-02-20 21:04:00,
2014-02-20 15:19:00,33.3,26.9,29.54,WNW,292,16.6,-999.0,77,-99.99,,,0.45,Acu-Link.com,2014-02-20 21:19:00,
2014-02-20 15:34:00,32.4,26.3,29.54,North,0,16.6,-999.0,78,-99.99,,,0.46,Acu-Link.com,2014-02-20 21:34:00,
2014-02-20 15:49:00,31.5,25.8,29.55,NNW,337,18.1,-999.0,79,-99.99,,,0.48,Acu-Link.com,2014-02-20 21:49:00,
2014-02-20 16:04:00,30.2,25.1,29.56,West,270,12.5,-999.0,81,-99.99,,,0.56,Acu-Link.com,2014-02-20 22:04:00,
2014-02-20 16:19:00,28.8,24.0,29.57,North,0,15.0,-999.0,82,-99.99,,,0.56,Acu-Link.com,2014-02-20 22:19:00,
2014-02-20 16:34:00,27.7,22.9,29.57,NW,315,19.7,-999.0,82,-99.99,,,0.59,Acu-Link.com,2014-02-20 22:34:00,
2014-02-20 16:50:00,27.1,22.6,29.59,WNW,292,18.1,-999.0,83,-99.99,,,0.65,Acu-Link.com,2014-02-20 22:50:00,
2014-02-20 17:05:00,26.2,21.8,29.59,NNW,337,11.9,-999.0,83,-99.99,,,0.78,Acu-Link.com,2014-02-20 23:05:00,
2014-02-20 17:20:00,25.9,21.5,29.59,NNW,337,12.5,-999.0,83,-99.99,,,1.06,Acu-Link.com,2014-02-20 23:20:00,
2014-02-20 17:35:00,25.0,20.3,29.61,NNW,337,16.1,-999.0,82,-99.99,,,1.37,Acu-Link.com,2014-02-20 23:35:00,
2014-02-20 17:50:00,24.1,19.4,29.62,NNW,337,24.3,-999.0,82,-99.99,,,1.57,Acu-Link.com,2014-02-20 23:50:00,
2014-02-20 18:08:00,23.9,19.5,29.62,NW,315,21.7,-999.0,83,-99.99,,,1.57,Acu-Link.com,2014-02-21 00:08:00,
2014-02-20 18:23:00,23.5,19.1,29.63,North,0,15.0,-999.0,83,-99.99,,,1.85,Acu-Link.com,2014-02-21 00:23:00,
2014-02-20 18:38:00,22.8,18.1,29.63,NNW,337,14.5,-999.0,82,-99.99,,,1.89,Acu-Link.com,2014-02-21 00:38:00,
2014-02-20 18:53:00,22.6,17.7,29.66,NNW,337,22.2,-999.0,81,-99.99,,,2.12,Acu-Link.com,2014-02-21 00:53:00,
2014-02-20 19:09:00,22.3,17.1,29.66,NNW,337,17.1,-999.0,80,-99.99,,,2.24,Acu-Link.com,2014-02-21 01:09:00,
2014-02-20 19:24:00,22.1,17.5,29.67,NNW,337,13.5,-999.0,82,-99.99,,,2.44,Acu-Link.com,2014-02-21 01:24:00,
2014-02-20 19:39:00,21.7,16.2,29.67,NW,315,17.6,-999.0,79,-99.99,,,2.51,Acu-Link.com,2014-02-21 01:39:00,
2014-02-20 19:54:00,21.6,16.4,29.68,NW,315,15.0,-999.0,80,-99.99,,,2.53,Acu-Link.com,2014-02-21 01:54:00,
2014-02-20 20:09:00,21.6,16.4,29.68,NNW,337,11.4,-999.0,80,-99.99,,,2.53,Acu-Link.com,2014-02-21 02:09:00,
2014-02-20 20:24:00,21.2,15.4,29.68,NNW,337,18.6,-999.0,78,-99.99,,,2.55,Acu-Link.com,2014-02-21 02:24:00,
2014-02-20 20:39:00,21.2,16.0,29.68,NNW,337,9.9,-999.0,80,-99.99,,,2.68,Acu-Link.com,2014-02-21 02:39:00,
2014-02-20 20:54:00,21.0,15.8,29.68,WNW,292,11.4,-999.0,80,-99.99,,,2.72,Acu-Link.com,2014-02-21 02:54:00,
2014-02-20 21:09:00,21.0,15.5,29.68,NNW,337,9.9,-999.0,79,-99.99,,,2.75,Acu-Link.com,2014-02-21 03:09:00,
2014-02-20 21:24:00,21.0,15.8,29.67,NW,315,14.5,-999.0,80,-99.99,,,2.78,Acu-Link.com,2014-02-21 03:24:00,
2014-02-20 21:39:00,19.9,14.2,29.68,NW,315,15.0,-999.0,78,-99.99,,,2.80,Acu-Link.com,2014-02-21 03:39:00,
2014-02-20 21:54:00,19.2,13.5,29.67,NW,315,14.5,-999.0,78,-99.99,,,2.81,Acu-Link.com,2014-02-21 03:54:00,
2014-02-20 22:09:00,18.9,13.8,29.68,NW,315,9.9,-999.0,80,-99.99,,,2.83,Acu-Link.com,2014-02-21 04:09:00,
2014-02-20 22:25:00,18.9,13.8,29.68,NNW,337,14.5,-999.0,80,-99.99,,,2.87,Acu-Link.com,2014-02-21 04:25:00,
2014-02-20 22:40:00,18.3,12.9,29.68,NNW,337,20.2,-999.0,79,-99.99,,,2.94,Acu-Link.com,2014-02-21 04:40:00,
2014-02-20 22:55:00,18.3,12.6,29.67,NNW,337,13.5,-999.0,78,-99.99,,,3.09,Acu-Link.com,2014-02-21 04:55:00,
2014-02-20 23:10:00,18.3,12.3,29.67,NW,315,12.5,-999.0,77,-99.99,,,3.14,Acu-Link.com,2014-02-21 05:10:00,
2014-02-20 23:25:00,18.3,12.3,29.67,NNW,337,12.5,-999.0,77,-99.99,,,3.17,Acu-Link.com,2014-02-21 05:25:00,
2014-02-20 23:40:00,18.1,12.1,29.67,NNW,337,14.0,-999.0,77,-99.99,,,3.17,Acu-Link.com,2014-02-21 05:40:00,
2014-02-20 23:55:00,17.8,12.1,29.67,NNW,337,12.5,-999.0,78,-99.99,,,3.21,Acu-Link.com,2014-02-21 05:55:00,